createdAt,value
2024-04-11T00:01:25.819Z,86.14
2024-04-11T00:03:56.829Z,87.20
2024-04-11T00:06:27.751Z,85.52
2024-04-11T00:08:58.636Z,85.12
2024-04-11T00:13:57.974Z,86.03
2024-04-11T00:16:26.591Z,89.95
2024-04-11T00:18:57.467Z,93.71
2024-04-11T00:21:29.441Z,93.11
2024-04-11T00:24:00.258Z,96.45
2024-04-11T00:26:28.528Z,100.00
2024-04-11T00:28:59.684Z,96.10
2024-04-11T00:31:27.758Z,93.54
2024-04-11T00:34:15.168Z,93.10
2024-04-11T00:36:46.883Z,90.99
2024-04-11T00:39:19.914Z,90.62
2024-04-11T00:41:49.067Z,90.75
2024-04-11T00:44:20.999Z,89.98
2024-04-11T00:46:52.792Z,91.13
2024-04-11T00:49:25.084Z,96.20
2024-04-11T00:51:59.279Z,96.46
2024-04-11T00:54:28.739Z,97.39
2024-04-11T00:57:01.464Z,97.60
2024-04-11T00:59:29.889Z,98.33
2024-04-11T01:02:01.079Z,99.42
2024-04-11T01:04:29.197Z,100.00
2024-04-11T01:07:11.927Z,97.97
2024-04-11T01:09:43.423Z,94.57
2024-04-11T01:12:18.164Z,94.65
2024-04-11T01:14:48.293Z,92.32
2024-04-11T01:17:22.089Z,96.16
2024-04-11T01:19:50.267Z,98.81
2024-04-11T01:22:23.647Z,100.00
2024-04-11T01:24:54.510Z,100.00
2024-04-11T01:27:25.595Z,100.00
2024-04-11T01:29:53.805Z,100.00
2024-04-11T01:32:24.736Z,100.00
2024-04-11T01:34:58.190Z,100.00
2024-04-11T01:37:29.955Z,100.00
2024-04-11T01:40:01.106Z,100.00
2024-04-11T01:42:32.686Z,100.00
2024-04-11T01:45:00.955Z,100.00
2024-04-11T01:47:32.032Z,100.00
2024-04-11T01:50:00.376Z,100.00
2024-04-11T01:52:31.173Z,100.00
2024-04-11T01:55:03.182Z,100.00
2024-04-11T01:57:34.293Z,100.00
2024-04-11T02:00:02.556Z,100.00
2024-04-11T02:02:45.182Z,100.00
2024-04-11T02:05:14.350Z,100.00
2024-04-11T02:07:46.303Z,100.00
2024-04-11T02:10:17.078Z,100.00
2024-04-11T02:12:48.320Z,100.00
2024-04-11T02:15:16.752Z,100.00
2024-04-11T02:17:47.597Z,100.00
2024-04-11T02:20:15.914Z,100.00
2024-04-11T02:22:47.754Z,100.00
2024-04-11T02:25:18.908Z,100.00
2024-04-11T02:27:49.707Z,100.00
2024-04-11T02:30:17.835Z,100.00
2024-04-11T02:32:48.978Z,100.00
2024-04-11T02:35:17.298Z,100.00
2024-04-11T02:37:48.267Z,100.00
2024-04-11T02:40:19.080Z,100.00
2024-04-11T02:42:50.669Z,100.00
2024-04-11T02:45:19.552Z,100.00
2024-04-11T02:47:51.244Z,100.00
2024-04-11T02:50:24.632Z,100.00
2024-04-11T02:52:56.065Z,100.00
2024-04-11T02:55:28.437Z,100.00
2024-04-11T02:57:59.167Z,100.00
2024-04-11T03:00:28.312Z,100.00
2024-04-11T03:03:00.821Z,100.00
2024-04-11T03:05:29.085Z,100.00
2024-04-11T03:07:59.838Z,100.00
2024-04-11T03:10:30.873Z,100.00
2024-04-11T03:13:01.582Z,100.00
2024-04-11T03:15:32.242Z,100.00
2024-04-11T03:18:03.251Z,100.00
2024-04-11T03:20:31.570Z,100.00
2024-04-11T03:23:02.332Z,100.00
2024-04-11T03:25:33.123Z,100.00
2024-04-11T03:28:04.360Z,100.00
2024-04-11T03:30:32.443Z,100.00
2024-04-11T03:33:03.370Z,100.00
2024-04-11T03:35:34.249Z,100.00
2024-04-11T03:38:05.364Z,100.00
2024-04-11T03:40:36.115Z,100.00
2024-04-11T03:43:08.162Z,100.00
2024-04-11T03:45:39.361Z,100.00
2024-04-11T03:48:10.903Z,100.00
2024-04-11T03:50:41.833Z,100.00
2024-04-11T03:53:09.965Z,100.00
2024-04-11T03:55:49.411Z,100.00
2024-04-11T03:58:17.982Z,100.00
2024-04-11T04:00:49.639Z,100.00
2024-04-11T04:03:18.558Z,100.00
2024-04-11T04:05:49.437Z,100.00
2024-04-11T04:08:17.594Z,100.00
2024-04-11T04:10:52.242Z,100.00
2024-04-11T04:13:21.479Z,100.00
2024-04-11T04:15:52.354Z,100.00
2024-04-11T04:18:21.363Z,100.00
2024-04-11T04:20:57.910Z,100.00
2024-04-11T04:23:26.479Z,100.00
2024-04-11T04:26:06.572Z,100.00
2024-04-11T04:28:36.594Z,100.00
2024-04-11T04:31:18.308Z,100.00
2024-04-11T04:33:49.326Z,100.00
2024-04-11T04:36:24.410Z,100.00
2024-04-11T04:38:53.066Z,100.00
2024-04-11T04:41:31.037Z,100.00
2024-04-11T04:44:01.959Z,100.00
2024-04-11T04:46:34.552Z,100.00
2024-04-11T04:49:04.516Z,100.00
2024-04-11T04:51:37.524Z,100.00
2024-04-11T04:54:06.230Z,100.00
2024-04-11T04:56:43.093Z,100.00
2024-04-11T04:59:11.994Z,100.00
2024-04-11T05:01:43.299Z,100.00
2024-04-11T05:04:16.916Z,100.00
2024-04-11T05:06:50.895Z,100.00
2024-04-11T05:09:19.177Z,100.00
2024-04-11T05:11:52.533Z,95.42
2024-04-11T05:14:21.831Z,86.96
2024-04-11T05:16:54.080Z,90.04
2024-04-11T05:19:22.213Z,89.22
2024-04-11T05:21:52.911Z,82.07
2024-04-11T05:24:21.441Z,71.07
2024-04-11T05:26:54.888Z,77.79
2024-04-11T05:29:23.141Z,90.47
2024-04-11T05:31:57.947Z,100.00
2024-04-11T05:34:27.537Z,100.00
2024-04-11T05:36:58.558Z,100.00
2024-04-11T05:39:27.177Z,100.00
2024-04-11T05:42:01.135Z,100.00
2024-04-11T05:44:29.410Z,100.00
2024-04-11T05:47:00.567Z,88.16
2024-04-11T05:49:28.901Z,80.67
2024-04-11T05:52:01.860Z,74.33
2024-04-11T05:54:30.117Z,71.96
2024-04-11T05:57:03.596Z,73.56
2024-04-11T05:59:33.310Z,74.04
2024-04-11T06:02:04.467Z,72.49
2024-04-11T06:04:32.971Z,74.37
2024-04-11T06:07:04.222Z,74.12
2024-04-11T06:09:32.648Z,80.12
2024-04-11T06:12:06.522Z,79.19
2024-04-11T06:14:34.798Z,77.40
2024-04-11T06:17:05.645Z,78.12
2024-04-11T06:19:35.434Z,76.24
2024-04-11T06:22:07.662Z,76.48
2024-04-11T06:24:37.035Z,65.79
2024-04-11T06:27:11.271Z,60.37
2024-04-11T06:29:39.480Z,58.17
2024-04-11T06:32:14.202Z,55.08
2024-04-11T06:34:43.718Z,54.95
2024-04-11T06:37:14.659Z,54.21
2024-04-11T06:39:42.769Z,53.50
2024-04-11T06:42:19.008Z,51.47
2024-04-11T06:44:47.156Z,53.70
2024-04-11T06:47:27.804Z,57.12
2024-04-11T06:50:00.245Z,60.12
2024-04-11T06:52:31.103Z,58.40
2024-04-11T06:54:59.668Z,56.40
2024-04-11T06:57:38.079Z,55.20
2024-04-11T07:00:13.942Z,55.74
2024-04-11T07:02:50.451Z,51.75
2024-04-11T07:05:21.938Z,52.33
2024-04-11T07:07:56.031Z,54.45
2024-04-11T07:10:33.854Z,53.90
2024-04-11T07:13:07.452Z,55.54
2024-04-11T07:15:40.812Z,56.71
2024-04-11T07:18:16.532Z,57.16
2024-04-11T07:20:52.115Z,55.97
2024-04-11T07:23:24.259Z,53.96
2024-04-11T07:25:52.294Z,52.58
2024-04-11T07:28:25.669Z,50.73
2024-04-11T07:30:54.102Z,48.05
2024-04-11T07:33:25.015Z,46.99
2024-04-11T07:35:53.221Z,45.89
2024-04-11T07:38:27.950Z,47.58
2024-04-11T07:40:56.109Z,46.03
2024-04-11T07:43:31.968Z,42.70
2024-04-11T07:46:01.901Z,42.78
2024-04-11T07:48:33.614Z,40.23
2024-04-11T07:51:03.954Z,39.56
2024-04-11T07:53:34.865Z,36.21
2024-04-11T07:56:02.912Z,36.13
2024-04-11T07:58:36.323Z,34.05
2024-04-11T08:01:04.704Z,33.86
2024-04-11T08:03:36.055Z,34.03
2024-04-11T08:06:04.578Z,33.34
2024-04-11T08:08:35.337Z,33.98
2024-04-11T08:11:04.638Z,34.66
2024-04-11T08:13:41.432Z,32.86
2024-04-11T08:16:11.593Z,32.00
2024-04-11T08:18:43.211Z,31.84
2024-04-11T08:21:12.619Z,30.39
2024-04-11T08:23:44.660Z,30.03
2024-04-11T08:26:14.548Z,30.88
2024-04-11T08:28:48.314Z,29.68
2024-04-11T08:31:16.794Z,26.96
2024-04-11T08:33:48.242Z,27.35
2024-04-11T08:36:19.636Z,26.03
2024-04-11T08:38:50.766Z,28.75
2024-04-11T08:41:19.095Z,26.26
2024-04-11T08:43:52.702Z,25.09
2024-04-11T08:46:20.987Z,23.56
2024-04-11T08:48:51.914Z,21.00
2024-04-11T08:51:21.477Z,23.34
2024-04-11T08:54:01.682Z,21.83
2024-04-11T08:56:33.482Z,20.91
2024-04-11T08:59:11.167Z,22.53
2024-04-11T09:01:39.342Z,23.01
2024-04-11T09:04:10.041Z,24.12
2024-04-11T09:06:38.271Z,23.97
2024-04-11T09:09:17.466Z,21.11
2024-04-11T09:11:46.168Z,20.19
2024-04-11T09:14:19.737Z,18.87
2024-04-11T09:16:47.959Z,19.07
2024-04-11T09:19:24.227Z,19.97
2024-04-11T09:21:54.495Z,19.53
2024-04-11T09:24:26.217Z,20.46
2024-04-11T09:26:58.219Z,18.23
2024-04-11T09:29:31.793Z,19.03
2024-04-11T09:32:04.784Z,17.74
2024-04-11T09:34:45.239Z,19.59
2024-04-11T09:37:17.324Z,19.01
2024-04-11T09:39:51.324Z,18.76
2024-04-11T09:42:20.791Z,19.73
2024-04-11T09:44:57.225Z,19.79
2024-04-11T09:47:29.203Z,24.20
2024-04-11T09:50:02.343Z,25.95
2024-04-11T09:52:36.005Z,27.10
2024-04-11T09:55:10.106Z,26.93
2024-04-11T09:57:43.461Z,26.42
2024-04-11T10:00:42.630Z,24.47
2024-04-11T10:03:11.312Z,24.98
2024-04-11T10:05:42.533Z,25.27
2024-04-11T10:08:18.719Z,24.11
2024-04-11T10:10:55.008Z,24.34
2024-04-11T10:13:23.958Z,22.63
2024-04-11T10:16:08.174Z,22.35
2024-04-11T10:18:43.482Z,24.41
2024-04-11T10:21:14.556Z,24.56
2024-04-11T10:23:43.738Z,23.01
2024-04-11T10:26:16.544Z,25.27
2024-04-11T10:28:50.423Z,24.30
2024-04-11T10:31:26.561Z,23.33
2024-04-11T10:34:01.553Z,24.76
2024-04-11T10:36:34.684Z,24.56
2024-04-11T10:39:03.585Z,25.05
2024-04-11T10:41:34.620Z,25.86
2024-04-11T10:44:03.715Z,26.31
2024-04-11T10:46:39.778Z,26.57
2024-04-11T10:49:14.075Z,26.10
2024-04-11T10:51:45.117Z,26.01
2024-04-11T10:54:14.268Z,25.47
2024-04-11T10:56:46.135Z,25.50
2024-04-11T10:59:19.603Z,26.37
2024-04-11T11:02:06.450Z,25.45
2024-04-11T11:04:36.435Z,27.10
2024-04-11T11:07:11.969Z,27.08
2024-04-11T11:09:44.439Z,25.80
2024-04-11T11:12:17.784Z,27.16
2024-04-11T11:14:48.435Z,26.87
2024-04-11T11:17:22.066Z,26.10
2024-04-11T11:19:51.855Z,25.43
2024-04-11T11:22:31.602Z,23.75
2024-04-11T11:25:02.924Z,24.02
2024-04-11T11:27:35.023Z,22.32
2024-04-11T11:30:08.078Z,24.04
2024-04-11T11:32:42.996Z,24.42
2024-04-11T11:35:13.481Z,24.91
2024-04-11T11:37:44.269Z,25.99
2024-04-11T11:40:27.506Z,24.80
2024-04-11T11:42:58.739Z,26.23
2024-04-11T11:45:29.547Z,26.59
2024-04-11T11:48:15.100Z,25.72
2024-04-11T11:50:45.519Z,25.65
2024-04-11T11:53:34.077Z,26.05
2024-04-11T11:56:07.437Z,26.67
2024-04-11T11:58:45.329Z,25.61
2024-04-11T12:01:36.975Z,25.04
2024-04-11T12:04:09.691Z,24.18
2024-04-11T12:06:45.992Z,23.04
2024-04-11T12:09:14.593Z,22.86
2024-04-11T12:12:09.144Z,22.72
2024-04-11T12:14:37.506Z,21.58
2024-04-11T12:17:12.231Z,23.55
2024-04-11T12:19:43.328Z,22.09
2024-04-11T12:22:17.936Z,21.70
2024-04-11T12:24:47.012Z,22.08
2024-04-11T12:27:17.896Z,21.80
2024-04-11T12:29:46.139Z,21.39
2024-04-11T12:32:19.756Z,21.34
2024-04-11T12:34:50.922Z,20.78
2024-04-11T12:37:28.615Z,22.44
2024-04-11T12:39:56.757Z,20.90
2024-04-11T12:42:31.734Z,19.22
2024-04-11T12:45:09.506Z,17.69
2024-04-11T12:47:50.197Z,18.49
2024-04-11T12:50:29.872Z,17.95
2024-04-11T12:53:00.681Z,18.16
2024-04-11T12:55:28.933Z,18.62
2024-04-11T12:58:08.282Z,18.55
2024-04-11T13:00:37.329Z,19.31
2024-04-11T13:03:17.688Z,18.21
2024-04-11T13:05:55.345Z,17.91
2024-04-11T13:08:32.883Z,17.99
2024-04-11T13:11:08.796Z,18.87
2024-04-11T13:13:43.095Z,17.78
2024-04-11T13:16:11.794Z,19.19
2024-04-11T13:18:43.298Z,19.08
2024-04-11T13:21:16.027Z,19.41
2024-04-11T13:23:47.284Z,19.47
2024-04-11T13:26:18.478Z,19.91
2024-04-11T13:29:00.241Z,19.61
2024-04-11T13:31:28.790Z,19.16
2024-04-11T13:33:59.672Z,18.74
2024-04-11T13:36:33.359Z,19.38
2024-04-11T13:39:04.260Z,20.11
2024-04-11T13:41:50.569Z,19.48
2024-04-11T13:44:27.533Z,20.09
2024-04-11T13:46:59.050Z,19.48
2024-04-11T13:49:31.979Z,19.64
2024-04-11T13:52:20.145Z,19.35
2024-04-11T13:54:50.060Z,20.50
2024-04-11T13:57:24.814Z,19.76
2024-04-11T13:59:56.483Z,19.71
2024-04-11T14:02:48.364Z,19.91
2024-04-11T14:05:31.316Z,20.45
2024-04-11T14:08:04.967Z,20.66
2024-04-11T14:10:34.594Z,20.51
2024-04-11T14:13:11.104Z,20.66
2024-04-11T14:15:39.094Z,20.63
2024-04-11T14:18:19.292Z,20.55
2024-04-11T14:20:52.233Z,21.07
2024-04-11T14:23:45.736Z,21.98
2024-04-11T14:26:13.836Z,21.40
2024-04-11T14:28:47.479Z,22.03
2024-04-11T14:31:32.084Z,21.84
2024-04-11T14:34:18.590Z,21.82
2024-04-11T14:37:01.786Z,21.98
2024-04-11T14:39:38.320Z,22.03
2024-04-11T14:42:07.873Z,22.72
2024-04-11T14:44:46.204Z,23.14
2024-04-11T14:47:20.751Z,23.51
2024-04-11T14:49:56.850Z,23.69
2024-04-11T14:52:28.040Z,23.71
2024-04-11T14:55:11.202Z,24.22
2024-04-11T14:57:39.342Z,23.23
2024-04-11T15:00:41.742Z,23.15
2024-04-11T15:03:17.164Z,24.32
2024-04-11T15:05:52.001Z,24.37
2024-04-11T15:08:24.002Z,24.59
2024-04-11T15:11:02.319Z,25.06
2024-04-11T15:13:30.818Z,25.06
2024-04-11T15:16:11.984Z,24.84
2024-04-11T15:18:43.463Z,26.07
2024-04-11T15:21:17.683Z,25.88
2024-04-11T15:23:47.147Z,26.36
2024-04-11T15:26:28.656Z,26.53
2024-04-11T15:29:01.057Z,26.19
2024-04-11T15:31:33.404Z,26.28
2024-04-11T15:34:09.225Z,25.97
2024-04-11T15:36:54.188Z,26.50
2024-04-11T15:39:30.469Z,26.88
2024-04-11T15:42:05.447Z,27.05
2024-04-11T15:44:39.180Z,27.42
2024-04-11T15:47:10.243Z,27.61
2024-04-11T15:49:41.353Z,27.50
2024-04-11T15:52:12.123Z,27.78
2024-04-11T15:54:57.315Z,28.48
2024-04-11T15:57:32.890Z,28.58
2024-04-11T16:00:12.066Z,27.64
2024-04-11T16:02:45.603Z,28.12
2024-04-11T16:05:26.168Z,28.31
2024-04-11T16:08:01.414Z,27.84
2024-04-11T16:10:29.995Z,27.87
2024-04-11T16:13:13.631Z,27.86
2024-04-11T16:15:42.719Z,28.01
2024-04-11T16:18:14.127Z,28.44
2024-04-11T16:20:48.643Z,28.29
2024-04-11T16:23:20.529Z,28.59
2024-04-11T16:25:53.144Z,28.55
2024-04-11T16:28:30.058Z,28.40
2024-04-11T16:31:18.960Z,28.55
2024-04-11T16:33:51.349Z,29.56
2024-04-11T16:36:20.924Z,29.24
2024-04-11T16:38:54.933Z,30.40
2024-04-11T16:41:32.971Z,30.87
2024-04-11T16:44:12.473Z,30.65
2024-04-11T16:46:41.952Z,31.36
2024-04-11T16:49:16.443Z,30.99
2024-04-11T16:51:44.863Z,31.27
2024-04-11T16:54:30.081Z,32.13
2024-04-11T16:56:58.998Z,31.76
2024-04-11T16:59:35.160Z,31.70
2024-04-11T17:02:04.436Z,32.10
2024-04-11T17:04:36.932Z,32.98
2024-04-11T17:07:16.525Z,33.08
2024-04-11T17:09:55.514Z,33.12
2024-04-11T17:12:24.330Z,33.46
2024-04-11T17:14:58.437Z,33.59
2024-04-11T17:17:30.782Z,34.48
2024-04-11T17:20:24.832Z,34.65
2024-04-11T17:22:55.072Z,34.13
2024-04-11T17:25:28.184Z,34.51
2024-04-11T17:27:58.821Z,34.70
2024-04-11T17:30:55.499Z,34.83
2024-04-11T17:33:43.123Z,34.67
2024-04-11T17:36:30.304Z,34.94
2024-04-11T17:39:25.624Z,35.14
2024-04-11T17:42:05.394Z,35.58
2024-04-11T17:44:47.920Z,35.83
2024-04-11T17:47:33.938Z,35.47
2024-04-11T17:50:06.309Z,35.46
2024-04-11T17:52:47.522Z,35.45
2024-04-11T17:55:26.404Z,35.47
2024-04-11T17:57:57.642Z,35.23
2024-04-11T18:00:33.127Z,35.59
2024-04-11T18:03:08.694Z,35.54
2024-04-11T18:05:41.240Z,35.69
2024-04-11T18:08:13.543Z,36.29
2024-04-11T18:10:47.039Z,36.02
2024-04-11T18:13:18.799Z,36.47
2024-04-11T18:15:51.717Z,36.29
2024-04-11T18:18:30.375Z,36.38
2024-04-11T18:21:00.911Z,36.67
2024-04-11T18:23:31.871Z,37.17
2024-04-11T18:25:59.972Z,36.31
2024-04-11T18:28:34.716Z,37.04
2024-04-11T18:31:07.448Z,37.29
2024-04-11T18:33:44.867Z,37.15
2024-04-11T18:36:25.477Z,37.39
2024-04-11T18:38:56.832Z,37.43
2024-04-11T18:41:47.800Z,37.25
2024-04-11T18:44:23.024Z,37.66
2024-04-11T18:46:57.564Z,37.97
2024-04-11T18:49:40.573Z,38.52
2024-04-11T18:52:14.684Z,38.92
2024-04-11T18:54:46.945Z,39.35
2024-04-11T18:57:15.255Z,38.91
2024-04-11T18:59:46.109Z,39.68
2024-04-11T19:02:14.821Z,39.42
2024-04-11T19:04:54.228Z,40.29
2024-04-11T19:07:25.828Z,43.57
2024-04-11T19:10:01.966Z,43.43
2024-04-11T19:12:33.195Z,42.87
2024-04-11T19:15:08.841Z,43.43
2024-04-11T19:17:40.046Z,43.47
2024-04-11T19:20:25.331Z,44.18
2024-04-11T19:22:54.784Z,44.19
2024-04-11T19:25:29.543Z,44.70
2024-04-11T19:27:59.918Z,44.72
2024-04-11T19:30:38.628Z,44.90
2024-04-11T19:33:21.773Z,45.38
2024-04-11T19:35:56.618Z,45.74
2024-04-11T19:38:32.134Z,46.53
2024-04-11T19:41:09.366Z,46.46
2024-04-11T19:43:37.765Z,46.42
2024-04-11T19:46:14.036Z,47.05
2024-04-11T19:48:49.661Z,46.42
2024-04-11T19:51:24.909Z,48.36
2024-04-11T19:53:55.751Z,48.87
2024-04-11T19:56:35.688Z,49.60
2024-04-11T19:59:04.809Z,48.93
2024-04-11T20:01:48.234Z,49.01
2024-04-11T20:04:25.267Z,49.07
2024-04-11T20:07:03.710Z,48.96
2024-04-11T20:09:33.337Z,49.47
2024-04-11T20:12:14.855Z,50.20
2024-04-11T20:14:46.036Z,50.20
2024-04-11T20:17:32.793Z,50.57
2024-04-11T20:20:03.357Z,51.20
2024-04-11T20:22:40.970Z,52.20
2024-04-11T20:25:12.475Z,51.40
2024-04-11T20:27:48.965Z,52.45
2024-04-11T20:30:18.173Z,53.15
2024-04-11T20:32:52.477Z,53.77
2024-04-11T20:35:28.012Z,53.25
2024-04-11T20:38:17.229Z,54.68
2024-04-11T20:40:46.672Z,54.10
2024-04-11T20:43:38.626Z,54.46
2024-04-11T20:46:09.228Z,54.40
2024-04-11T20:49:06.149Z,54.84
2024-04-11T20:51:52.927Z,55.17
2024-04-11T20:54:42.089Z,56.48
2024-04-11T20:57:28.860Z,55.27
2024-04-11T21:00:11.947Z,55.86
2024-04-11T21:02:58.405Z,56.51
2024-04-11T21:05:44.928Z,57.58
2024-04-11T21:08:31.471Z,57.67
2024-04-11T21:11:20.592Z,58.40
2024-04-11T21:14:07.214Z,58.73
2024-04-11T21:16:54.696Z,58.11
2024-04-11T21:19:51.011Z,62.39
2024-04-11T21:22:46.147Z,62.69
2024-04-11T21:25:32.805Z,61.87
2024-04-11T21:28:22.576Z,61.34
2024-04-11T21:31:09.142Z,62.12
2024-04-11T21:33:40.547Z,61.68
2024-04-11T21:36:12.174Z,63.47
2024-04-11T21:38:43.089Z,66.14
2024-04-11T21:41:38.076Z,66.56
2024-04-11T21:44:09.080Z,65.70
2024-04-11T21:46:42.766Z,64.80
2024-04-11T21:49:16.504Z,64.50
2024-04-11T21:51:49.238Z,66.60
2024-04-11T21:54:19.766Z,66.75
2024-04-11T21:56:52.327Z,66.15
2024-04-11T21:59:24.251Z,67.82
2024-04-11T22:01:56.518Z,68.38
2024-04-11T22:04:34.028Z,71.38
2024-04-11T22:07:09.814Z,72.64
2024-04-11T22:09:42.377Z,74.77
2024-04-11T22:12:15.078Z,75.94
2024-04-11T22:14:47.337Z,78.08
2024-04-11T22:17:21.559Z,79.03
2024-04-11T22:20:01.963Z,79.32
2024-04-11T22:22:46.835Z,81.16
2024-04-11T22:25:16.593Z,77.90
2024-04-11T22:27:49.526Z,79.33
2024-04-11T22:30:27.073Z,79.55
2024-04-11T22:33:03.303Z,79.02
2024-04-11T22:35:31.909Z,82.54
2024-04-11T22:38:02.880Z,82.41
2024-04-11T22:40:32.217Z,84.21
2024-04-11T22:43:05.988Z,84.26
2024-04-11T22:45:40.851Z,83.15
2024-04-11T22:48:11.742Z,79.64
2024-04-11T22:50:41.282Z,80.28
2024-04-11T22:53:14.663Z,80.67
2024-04-11T22:55:49.005Z,82.89
2024-04-11T22:58:20.125Z,82.91
2024-04-11T23:00:50.946Z,82.31
2024-04-11T23:03:22.467Z,84.05
2024-04-11T23:05:54.261Z,87.19
2024-04-11T23:08:27.230Z,89.22
2024-04-11T23:10:58.329Z,89.68
2024-04-11T23:13:33.768Z,90.03
2024-04-11T23:16:06.951Z,87.63
2024-04-11T23:18:44.222Z,88.64
2024-04-11T23:21:14.096Z,88.12
2024-04-11T23:23:45.102Z,91.19
2024-04-11T23:26:17.647Z,92.94
2024-04-11T23:28:52.484Z,90.84
2024-04-11T23:31:23.511Z,90.23
2024-04-11T23:34:00.119Z,90.81
2024-04-11T23:36:30.530Z,91.61
2024-04-11T23:39:02.418Z,100.00
2024-04-11T23:41:36.240Z,100.00
2024-04-11T23:44:09.575Z,100.00
2024-04-11T23:46:42.747Z,96.73
2024-04-11T23:49:15.334Z,92.40
2024-04-11T23:51:48.164Z,82.70
2024-04-11T23:54:23.872Z,91.69
2024-04-11T23:57:03.418Z,100.00
2024-04-11T23:59:42.427Z,100.00
